Time;durP1;ratioP1;P1;durP2;ratioP2;P2;SDS_P1;SDS_P2;PMS_P1;PMS_P2;Temp;Humidity;BMP_temperature;BMP_pressure;BME280_temperature;BME280_humidity;BME280_pressure;Samples;Min_cycle;Max_cycle;Signal;HPM_P1;HPM_P2
2022/06/12 00:00:18;;;;;;;13.70;5.38;;;;;;;14.02;73.86;102222.59;5012146;28;20026;-55
2022/06/12 00:02:43;;;;;;;16.00;5.10;;;;;;;13.98;73.40;102224.63;5009874;28;20180;-56
2022/06/12 00:05:11;;;;;;;14.30;4.70;;;;;;;13.91;74.33;102214.50;5003514;28;20105;-56
2022/06/12 00:07:36;;;;;;;9.75;3.70;;;;;;;13.94;73.53;102214.25;5012050;28;20484;-56
2022/06/12 00:10:03;;;;;;;12.60;4.00;;;;;;;13.88;73.88;102218.22;5010464;28;20072;-56
2022/06/12 00:12:28;;;;;;;11.10;3.53;;;;;;;13.87;73.48;102220.03;5002280;28;20038;-56
2022/06/12 00:14:55;;;;;;;9.07;3.30;;;;;;;13.84;73.63;102220.25;5008094;28;20022;-56
2022/06/12 00:17:21;;;;;;;7.70;2.97;;;;;;;13.82;74.09;102223.97;5011635;28;20029;-54
2022/06/12 00:19:49;;;;;;;10.10;3.25;;;;;;;13.76;74.12;102208.38;5012205;28;20405;-55
2022/06/12 00:22:15;;;;;;;7.47;3.20;;;;;;;13.76;74.26;102214.56;5005240;28;20083;-56
2022/06/12 00:24:40;;;;;;;10.27;3.58;;;;;;;13.71;74.36;102208.69;5010299;28;20030;-56
2022/06/12 00:27:05;;;;;;;8.18;3.53;;;;;;;13.72;74.49;102210.38;5010398;28;20046;-56
2022/06/12 00:29:33;;;;;;;12.23;4.28;;;;;;;13.70;73.95;102212.31;5012177;28;20029;-55
2022/06/12 00:32:12;;;;;;;8.95;3.50;;;;;;;13.64;74.11;102213.59;5010661;28;20022;-56
2022/06/12 00:34:46;;;;;;;12.05;3.90;;;;;;;13.60;74.15;102211.22;5008305;28;20042;-55
2022/06/12 00:37:13;;;;;;;12.48;3.55;;;;;;;13.56;74.50;102209.75;5012089;28;20030;-55
2022/06/12 00:39:41;;;;;;;10.32;3.75;;;;;;;13.50;74.98;102219.84;5004069;28;20062;-56
2022/06/12 00:42:09;;;;;;;9.43;3.42;;;;;;;13.49;75.07;102215.50;5007813;28;20096;-56
2022/06/12 00:44:41;;;;;;;8.70;3.42;;;;;;;13.50;74.94;102211.00;5005983;28;20507;-56
2022/06/12 00:47:11;;;;;;;10.23;3.35;;;;;;;13.49;74.78;102217.31;5007871;28;20440;-56
2022/06/12 00:49:44;;;;;;;10.63;3.83;;;;;;;13.41;74.65;102212.47;5014758;28;20083;-56
2022/06/12 00:52:30;;;;;;;8.68;3.50;;;;;;;13.39;74.54;102217.06;5003377;28;20393;-54
2022/06/12 00:55:01;;;;;;;10.43;4.05;;;;;;;13.34;74.81;102213.84;4994193;28;20065;-55
2022/06/12 00:57:26;;;;;;;9.50;3.30;;;;;;;13.33;75.12;102228.13;4998115;28;20101;-56
2022/06/12 00:59:56;;;;;;;10.38;3.25;;;;;;;13.32;74.25;102219.28;5005899;28;20018;-55
2022/06/12 01:02:23;;;;;;;;;;;;;;;13.43;72.16;102210.56;5001139;28;20029;-56
2022/06/12 01:07:35;;;;;;;9.80;3.50;;;;;;;13.18;74.93;102211.28;5005936;28;20049;-56
2022/06/12 01:10:05;;;;;;;10.68;3.47;;;;;;;13.17;74.53;102208.72;5009510;28;20029;-56
2022/06/12 01:12:35;;;;;;;10.18;3.67;;;;;;;13.11;75.11;102212.66;5005311;28;20030;-56
2022/06/12 01:15:15;;;;;;;10.20;3.63;;;;;;;13.07;74.90;102204.00;5014479;28;20500;-56
2022/06/12 01:17:41;;;;;;;9.77;3.20;;;;;;;13.07;75.73;102213.81;5015107;28;20053;-56
2022/06/12 01:20:12;;;;;;;14.38;4.35;;;;;;;13.01;75.84;102214.22;5013103;28;20481;-56
2022/06/12 01:23:15;;;;;;;10.57;3.58;;;;;;;13.04;74.72;102214.88;5004385;28;20044;-56
2022/06/12 01:25:54;;;;;;;9.27;3.28;;;;;;;12.96;74.60;102212.69;5008984;28;20058;-55
2022/06/12 01:28:45;;;;;;;12.18;3.78;;;;;;;12.89;75.52;102210.50;4996169;28;20026;-56
2022/06/12 01:31:25;;;;;;;12.63;3.72;;;;;;;12.91;75.48;102216.63;4976320;28;20270;-56
2022/06/12 01:33:53;;;;;;;11.23;3.42;;;;;;;12.84;75.94;102212.63;5011691;28;20034;-55
2022/06/12 01:36:48;;;;;;;12.38;3.90;;;;;;;12.88;74.98;102212.34;5014725;28;20072;-56
2022/06/12 01:39:30;;;;;;;11.40;3.97;;;;;;;12.85;75.59;102214.34;5008917;28;20042;-56
2022/06/12 01:42:06;;;;;;;10.07;3.75;;;;;;;12.75;75.38;102206.09;5011001;28;20056;-56
2022/06/12 01:44:54;;;;;;;10.82;3.90;;;;;;;12.77;75.37;102202.38;5004605;28;20022;-56
2022/06/12 01:47:39;;;;;;;12.48;3.53;;;;;;;12.75;75.51;102198.09;5012807;28;20088;-55
2022/06/12 01:50:15;;;;;;;12.82;3.40;;;;;;;12.68;76.42;102197.63;5014679;28;20033;-55
2022/06/12 01:52:43;;;;;;;10.27;3.95;;;;;;;12.71;76.34;102204.56;5013577;28;20124;-55
2022/06/12 01:55:26;;;;;;;13.80;3.67;;;;;;;12.67;75.92;102205.72;5000928;28;20592;-56
2022/06/12 01:58:04;;;;;;;9.00;3.70;;;;;;;12.68;75.90;102202.94;5010067;28;20783;-56
2022/06/12 02:00:29;;;;;;;7.70;3.13;;;;;;;12.61;76.30;102196.31;4995730;28;20112;-56
2022/06/12 02:03:07;;;;;;;8.68;3.58;;;;;;;12.57;76.32;102202.78;4998134;28;20431;-56
2022/06/12 02:05:50;;;;;;;10.20;3.50;;;;;;;12.55;76.02;102199.34;5005349;28;20034;-55
2022/06/12 02:08:34;;;;;;;12.23;4.00;;;;;;;12.50;76.06;102191.66;5002469;28;20038;-56
2022/06/12 02:13:55;;;;;;;13.10;3.38;;;;;;;12.42;76.66;102204.59;5014109;28;20108;-56
2022/06/12 02:16:29;;;;;;;9.15;3.47;;;;;;;12.43;76.70;102201.00;5005970;28;20513;-56
2022/06/12 02:18:59;;;;;;;7.97;3.67;;;;;;;12.44;76.46;102207.16;4999901;28;20041;-56
2022/06/12 02:21:30;;;;;;;9.93;3.78;;;;;;;12.39;76.77;102207.47;5013838;28;20022;-56
2022/06/12 02:24:02;;;;;;;11.32;3.95;;;;;;;12.38;76.92;102214.59;5004789;28;20038;-56
2022/06/12 02:27:00;;;;;;;11.25;4.22;;;;;;;12.43;75.58;102216.97;5042199;23;20385;-56
2022/06/12 02:29:34;;;;;;;14.77;4.50;;;;;;;12.32;77.09;102207.00;5004328;28;20092;-56
2022/06/12 02:32:13;;;;;;;8.30;3.72;;;;;;;12.29;77.43;102206.31;5005993;28;20355;-57
2022/06/12 02:34:44;;;;;;;10.85;4.03;;;;;;;12.27;77.50;102203.75;5013405;28;20033;-60
2022/06/12 02:37:19;;;;;;;9.55;4.07;;;;;;;12.24;77.87;102203.97;5013128;28;20032;-60
2022/06/12 02:39:51;;;;;;;13.73;4.20;;;;;;;12.21;77.90;102199.66;5010994;28;20061;-59
2022/06/12 02:42:23;;;;;;;9.48;4.10;;;;;;;12.17;77.04;102194.59;4995447;28;20026;-58
2022/06/12 02:45:06;;;;;;;12.50;4.00;;;;;;;12.20;77.55;102197.09;5000439;28;20458;-59
2022/06/12 02:47:35;;;;;;;12.68;3.80;;;;;;;12.14;77.76;102193.00;5012014;28;20502;-58
2022/06/12 02:50:02;;;;;;;10.93;3.85;;;;;;;12.15;78.04;102192.03;5013310;28;20030;-58
2022/06/12 02:52:51;;;;;;;13.05;4.13;;;;;;;12.16;77.85;102199.09;5000723;28;20116;-58
2022/06/12 02:55:22;;;;;;;;;;;;;;;12.25;75.41;102191.47;5005295;28;20033;-58
2022/06/12 02:58:09;;;;;;;11.82;3.78;;;;;;;12.17;77.04;102186.63;4997308;28;19910;-59
2022/06/12 03:00:43;;;;;;;14.55;4.32;;;;;;;12.09;78.40;102184.44;4989255;28;20409;-58
2022/06/12 03:03:25;;;;;;;13.02;4.50;;;;;;;12.08;77.59;102185.38;5009133;28;20045;-58
2022/06/12 03:05:54;;;;;;;10.38;3.80;;;;;;;12.03;78.47;102188.31;5007470;28;20037;-58
2022/06/12 03:08:24;;;;;;;15.73;4.93;;;;;;;12.01;78.74;102186.72;5008903;28;20026;-56
2022/06/12 03:10:54;;;;;;;11.48;3.97;;;;;;;12.00;78.70;102188.50;4985148;28;20022;-57
2022/06/12 03:13:22;;;;;;;9.32;4.25;;;;;;;11.99;79.27;102197.47;5004952;28;20030;-56
2022/06/12 03:15:54;;;;;;;12.50;4.13;;;;;;;11.98;79.05;102194.91;4997759;28;20072;-56
2022/06/12 03:18:26;;;;;;;12.00;4.80;;;;;;;11.99;79.49;102200.13;5009679;28;20035;-56
2022/06/12 03:21:33;;;;;;;10.32;4.47;;;;;;;12.01;78.65;102205.38;5003163;28;20085;-55
2022/06/12 03:24:19;;;;;;;11.98;4.95;;;;;;;11.98;79.07;102198.41;5009696;28;20033;-57
2022/06/12 03:27:05;;;;;;;11.95;4.60;;;;;;;11.97;78.67;102199.38;5010208;28;20049;-57
2022/06/12 03:29:57;;;;;;;12.30;4.30;;;;;;;11.96;79.04;102199.47;5001547;28;20061;-56
2022/06/12 03:33:04;;;;;;;13.50;4.82;;;;;;;11.97;79.26;102201.16;5008512;28;20022;-58
2022/06/12 03:35:48;;;;;;;13.38;4.82;;;;;;;11.95;79.04;102195.94;5001450;28;20042;-59
2022/06/12 03:38:37;;;;;;;13.15;4.80;;;;;;;11.93;78.82;102197.84;5010127;28;20389;-58
2022/06/12 03:41:09;;;;;;;10.25;4.72;;;;;;;11.92;80.01;102200.59;4999858;28;20026;-58
2022/06/12 03:43:40;;;;;;;14.32;5.15;;;;;;;11.87;80.54;102203.47;5012512;28;20508;-58
2022/06/12 03:46:39;;;;;;;11.40;4.63;;;;;;;11.89;79.60;102209.59;5012656;28;20068;-58
2022/06/12 03:49:33;;;;;;;11.38;4.78;;;;;;;11.87;79.89;102203.47;5011657;28;20045;-59
2022/06/12 03:52:14;;;;;;;12.65;4.68;;;;;;;11.85;80.20;102206.25;5012397;28;20040;-58
2022/06/12 03:54:45;;;;;;;12.52;4.97;;;;;;;11.85;80.38;102206.25;5012081;28;20033;-59
2022/06/12 04:00:08;;;;;;;12.30;4.30;;;;;;;11.82;80.74;102208.22;5000518;28;20060;-58
2022/06/12 04:02:35;;;;;;;10.95;4.78;;;;;;;11.83;80.97;102213.47;4993863;28;20034;-59
2022/06/12 04:05:04;;;;;;;13.98;4.78;;;;;;;11.87;80.17;102213.28;5010267;28;20033;-58
2022/06/12 04:07:30;;;;;;;13.07;4.57;;;;;;;11.88;80.39;102209.69;5006160;28;20084;-59
2022/06/12 04:10:02;;;;;;;12.32;4.72;;;;;;;11.88;80.20;102205.22;4994766;28;20029;-58
2022/06/12 04:12:31;;;;;;;12.30;4.65;;;;;;;11.87;80.47;102197.31;5011473;28;20026;-58
2022/06/12 04:15:01;;;;;;;;;;;;;;;11.96;77.87;102207.44;5006667;28;20128;-59
2022/06/12 04:17:26;;;;;;;11.30;4.43;;;;;;;11.90;79.89;102203.31;5009320;28;19936;-59
2022/06/12 04:20:04;;;;;;;14.13;4.82;;;;;;;11.89;80.64;102212.25;5009246;28;20021;-58
2022/06/12 04:22:46;;;;;;;12.48;4.55;;;;;;;11.93;80.06;102207.63;5009528;28;20034;-58
2022/06/12 04:25:44;;;;;;;11.13;4.47;;;;;;;11.95;79.09;102206.56;5008484;28;20108;-59
2022/06/12 04:28:30;;;;;;;16.43;5.07;;;;;;;11.97;79.49;102210.03;5001713;28;20038;-58
2022/06/12 04:30:57;;;;;;;12.77;4.80;;;;;;;11.98;79.86;102218.88;5014787;28;20034;-58
2022/06/12 04:33:32;;;;;;;8.30;4.47;;;;;;;12.00;79.96;102217.81;5012446;28;20072;-59
2022/06/12 04:36:00;;;;;;;11.68;4.45;;;;;;;12.00;79.81;102207.16;5015686;28;20083;-59
2022/06/12 04:38:27;;;;;;;11.98;4.82;;;;;;;12.05;79.81;102232.66;5013635;28;20037;-59
2022/06/12 04:40:53;;;;;;;8.93;4.57;;;;;;;12.12;79.86;102223.34;4997545;28;20026;-59
2022/06/12 04:43:19;;;;;;;11.55;4.50;;;;;;;12.20;79.73;102221.06;5015017;28;20085;-59
2022/06/12 04:45:45;;;;;;;13.10;4.75;;;;;;;12.24;79.59;102225.28;5012037;28;20405;-58
2022/06/12 04:48:19;;;;;;;15.07;4.90;;;;;;;12.32;79.42;102230.09;5014280;28;20029;-58
2022/06/12 04:50:46;;;;;;;12.68;4.60;;;;;;;12.40;78.92;102222.50;5014806;28;20041;-58
2022/06/12 04:53:11;;;;;;;13.00;4.75;;;;;;;12.46;78.58;102216.78;5014025;28;20075;-58
2022/06/12 04:55:36;;;;;;;10.23;4.07;;;;;;;12.59;78.36;102224.88;5014455;28;20034;-59
2022/06/12 04:58:04;;;;;;;15.30;4.63;;;;;;;12.71;78.29;102225.91;5014712;28;20476;-59
2022/06/12 05:00:29;;;;;;;10.27;4.35;;;;;;;12.83;77.82;102221.59;5012107;28;20037;-59
2022/06/12 05:02:54;;;;;;;10.60;4.10;;;;;;;12.93;77.08;102218.22;5002841;28;20025;-59
2022/06/12 05:05:20;;;;;;;10.55;4.38;;;;;;;13.03;76.83;102207.81;5015002;28;20132;-59
2022/06/12 05:07:45;;;;;;;12.98;3.92;;;;;;;13.16;76.92;102215.03;5014788;28;20029;-59
2022/06/12 05:10:14;;;;;;;12.75;4.18;;;;;;;13.27;76.16;102213.38;5014353;28;20022;-59
2022/06/12 05:12:39;;;;;;;11.07;4.32;;;;;;;13.39;76.03;102209.06;5014387;28;20026;-58
2022/06/12 05:15:05;;;;;;;11.23;3.80;;;;;;;13.55;75.43;102216.03;5015006;28;20088;-58
2022/06/12 05:17:31;;;;;;;12.65;4.32;;;;;;;13.59;75.36;102215.72;5014239;28;20022;-59
2022/06/12 05:19:57;;;;;;;15.52;4.70;;;;;;;13.67;74.54;102216.06;5014598;28;20426;-59
2022/06/12 05:22:25;;;;;;;14.88;4.50;;;;;;;13.73;74.76;102214.78;5006333;28;20841;-59
2022/06/12 05:24:50;;;;;;;12.15;4.15;;;;;;;13.81;74.80;102215.13;5011400;28;20132;-59
2022/06/12 05:27:20;;;;;;;10.98;3.90;;;;;;;13.93;74.94;102218.75;5003991;28;20581;-59
2022/06/12 05:29:46;;;;;;;12.00;4.25;;;;;;;14.05;74.29;102207.25;5009502;28;20042;-59
2022/06/12 05:32:14;;;;;;;13.27;4.70;;;;;;;14.20;74.54;102209.78;5004625;28;20417;-59
2022/06/12 05:34:40;;;;;;;15.52;4.35;;;;;;;14.40;73.48;102224.41;5006105;28;20025;-59
2022/06/12 05:37:05;;;;;;;12.48;3.80;;;;;;;14.60;72.99;102207.84;5004898;28;20034;-59
2022/06/12 05:39:31;;;;;;;12.13;3.88;;;;;;;14.78;73.07;102210.13;5013217;28;20482;-59
2022/06/12 05:41:56;;;;;;;11.50;3.90;;;;;;;14.96;71.62;102208.78;5013556;28;20033;-59
2022/06/12 05:44:22;;;;;;;15.93;4.22;;;;;;;15.15;71.52;102215.47;5010985;28;20119;-59
2022/06/12 05:46:47;;;;;;;12.90;3.85;;;;;;;15.36;70.49;102213.84;5013212;28;20032;-60
2022/06/12 05:49:13;;;;;;;12.52;4.38;;;;;;;15.56;70.23;102219.53;5014211;28;20034;-59
2022/06/12 05:51:39;;;;;;;16.23;3.95;;;;;;;15.72;68.67;102213.84;5000953;28;20042;-60
2022/06/12 05:54:04;;;;;;;15.80;4.47;;;;;;;15.94;68.87;102218.44;5002555;28;20036;-59
2022/06/12 05:56:31;;;;;;;12.32;3.88;;;;;;;16.13;68.44;102217.88;5014277;28;20080;-60
2022/06/12 05:58:59;;;;;;;14.32;4.25;;;;;;;16.40;67.62;102219.34;5013607;28;20029;-57
2022/06/12 06:01:25;;;;;;;16.05;4.50;;;;;;;16.58;66.79;102222.38;5009639;28;20034;-58
2022/06/12 06:03:51;;;;;;;12.70;4.30;;;;;;;16.82;66.96;102231.13;5014245;28;20081;-59
2022/06/12 06:06:20;;;;;;;13.15;4.18;;;;;;;17.02;67.53;102218.81;5013905;28;20032;-60
2022/06/12 06:08:45;;;;;;;18.20;4.80;;;;;;;17.29;65.53;102219.34;4983018;28;20541;-58
2022/06/12 06:11:11;;;;;;;12.73;4.45;;;;;;;17.49;65.45;102221.19;5014140;28;20117;-57
2022/06/12 06:13:37;;;;;;;12.18;3.92;;;;;;;17.76;65.11;102233.25;5012565;28;20021;-58
2022/06/12 06:16:03;;;;;;;18.25;4.82;;;;;;;17.87;64.59;102227.88;5009250;28;20030;-60
2022/06/12 06:18:29;;;;;;;16.92;4.50;;;;;;;18.07;64.27;102231.53;4995341;28;20029;-59
2022/06/12 06:20:54;;;;;;;17.67;4.28;;;;;;;18.20;63.97;102233.13;4995934;28;20028;-59
2022/06/12 06:23:20;;;;;;;20.17;5.68;;;;;;;18.47;63.82;102236.09;5013687;28;20021;-59
2022/06/12 06:25:45;;;;;;;13.27;4.57;;;;;;;18.66;63.08;102232.63;5012574;28;20046;-59
2022/06/12 06:28:12;;;;;;;21.83;4.75;;;;;;;18.80;62.79;102233.22;4995833;28;20104;-59
2022/06/12 06:30:38;;;;;;;17.52;4.55;;;;;;;19.10;63.00;102226.09;5013330;28;20446;-59
2022/06/12 06:33:04;;;;;;;21.88;4.93;;;;;;;19.23;62.33;102234.75;5012799;28;20474;-59
2022/06/12 06:35:30;;;;;;;18.38;4.90;;;;;;;19.28;61.60;102228.94;5013503;28;20036;-59
2022/06/12 06:37:55;;;;;;;19.95;4.68;;;;;;;19.46;62.07;102232.63;5008999;28;20061;-59
2022/06/12 06:40:26;;;;;;;17.67;5.07;;;;;;;19.39;61.90;102237.72;4994553;28;20033;-59
2022/06/12 06:42:52;;;;;;;17.77;5.15;;;;;;;19.50;60.97;102233.19;5012607;28;20087;-59
2022/06/12 06:48:05;;;;;;;16.42;4.70;;;;;;;19.56;60.91;102235.31;5005564;28;20041;-60
2022/06/12 06:50:32;;;;;;;19.00;4.70;;;;;;;19.55;61.62;102245.25;4995958;28;20548;-59
2022/06/12 06:52:59;;;;;;;17.33;4.55;;;;;;;19.75;60.16;102238.03;5008917;28;20100;-60
2022/06/12 06:55:25;;;;;;;19.02;5.53;;;;;;;19.63;60.96;102243.69;5011628;28;20049;-59
2022/06/12 06:57:50;;;;;;;18.30;4.93;;;;;;;19.84;60.51;102244.41;5012222;28;20076;-60
2022/06/12 07:00:21;;;;;;;18.05;5.15;;;;;;;19.89;60.34;102242.13;5005529;28;20024;-60
2022/06/12 07:02:46;;;;;;;18.98;4.90;;;;;;;20.21;59.69;102243.59;4998047;28;20050;-60
2022/06/12 07:05:12;;;;;;;18.25;5.43;;;;;;;20.19;58.86;102239.38;5002371;28;20110;-59
2022/06/12 07:07:37;;;;;;;20.27;4.97;;;;;;;20.15;58.50;102245.06;5011442;28;20030;-60
2022/06/12 07:10:06;;;;;;;19.30;5.25;;;;;;;20.35;58.69;102239.59;5008162;28;20026;-60
2022/06/12 07:12:31;;;;;;;;;;;;;;;20.58;60.32;102250.84;5010241;28;20041;-60
2022/06/12 07:14:57;;;;;;;17.10;5.10;;;;;;;20.53;57.68;102242.34;5007428;28;20264;-60
2022/06/12 07:17:22;;;;;;;19.10;4.90;;;;;;;20.62;58.04;102246.84;5010733;28;20277;-59
2022/06/12 07:19:48;;;;;;;18.05;4.82;;;;;;;20.50;57.73;102248.03;5010848;28;20088;-59
2022/06/12 07:22:13;;;;;;;17.08;5.43;;;;;;;20.61;57.56;102253.25;5005885;28;20044;-59
2022/06/12 07:24:38;;;;;;;16.60;5.13;;;;;;;20.73;57.69;102243.13;5011530;28;20037;-59
2022/06/12 07:27:05;;;;;;;16.15;5.28;;;;;;;20.79;56.62;102241.69;5009775;28;20077;-59
2022/06/12 07:29:30;;;;;;;20.80;5.30;;;;;;;21.05;55.58;102255.31;5010807;28;20042;-59
2022/06/12 07:31:55;;;;;;;16.58;4.53;;;;;;;21.29;55.75;102249.31;5010406;28;20057;-59
2022/06/12 07:34:21;;;;;;;18.02;5.18;;;;;;;21.30;55.37;102248.31;5009783;28;20037;-59
2022/06/12 07:36:50;;;;;;;19.98;5.47;;;;;;;21.31;54.95;102255.41;5003068;28;20037;-59
2022/06/12 07:39:18;;;;;;;;;;;;;;;21.74;57.39;102250.25;5007049;28;20017;-59
2022/06/12 07:41:48;;;;;;;21.83;4.83;;;;;;;21.86;53.87;102250.84;5010244;28;20309;-60
2022/06/12 07:44:14;;;;;;;14.73;4.70;;;;;;;22.25;53.93;102245.84;5008977;28;20264;-60
2022/06/12 07:46:40;;;;;;;18.58;5.50;;;;;;;22.43;54.23;102250.34;5007953;28;20065;-59
2022/06/12 07:49:05;;;;;;;18.20;4.68;;;;;;;22.61;53.79;102250.28;5012930;28;20116;-59
2022/06/12 07:51:31;;;;;;;16.13;4.25;;;;;;;22.72;51.39;102248.13;5011648;28;20025;-60
2022/06/12 07:53:56;;;;;;;14.07;4.20;;;;;;;22.89;49.90;102243.59;5006292;28;20496;-60
2022/06/12 07:56:25;;;;;;;13.38;4.50;;;;;;;23.11;50.39;102248.59;5011252;28;20449;-60
2022/06/12 07:58:50;;;;;;;15.07;5.45;;;;;;;23.38;49.87;102248.31;5011237;28;20387;-60
2022/06/12 08:01:20;;;;;;;19.88;4.72;;;;;;;23.50;48.60;102239.81;5009359;28;20037;-60
2022/06/12 08:03:45;;;;;;;15.93;4.35;;;;;;;23.81;48.68;102242.69;5011324;28;20464;-60
2022/06/12 08:06:11;;;;;;;15.13;4.43;;;;;;;23.89;48.04;102245.44;5010018;28;20034;-60
2022/06/12 08:08:36;;;;;;;17.33;4.35;;;;;;;24.05;47.29;102246.41;5012146;28;20033;-60
2022/06/12 08:11:02;;;;;;;11.70;4.07;;;;;;;24.20;46.03;102242.00;5012096;28;20037;-60
2022/06/12 08:13:29;;;;;;;10.90;4.38;;;;;;;24.09;45.56;102245.06;5010502;28;20026;-59
2022/06/12 08:15:54;;;;;;;14.50;5.10;;;;;;;24.06;46.64;102248.97;5011037;28;20454;-59
2022/06/12 08:18:21;;;;;;;12.80;4.50;;;;;;;23.93;46.06;102244.09;5012432;28;20113;-59
2022/06/12 08:20:51;;;;;;;14.30;4.55;;;;;;;23.85;45.68;102248.66;5023078;28;20116;-59
2022/06/12 08:23:37;;;;;;;12.13;4.38;;;;;;;23.88;46.58;102242.88;5006909;28;20037;-59
2022/06/12 08:26:06;;;;;;;14.95;4.28;;;;;;;23.64;46.81;102241.88;4997937;28;20051;-59
2022/06/12 08:28:38;;;;;;;13.52;4.72;;;;;;;23.71;46.95;102242.88;5006704;28;20065;-59
2022/06/12 08:31:06;;;;;;;14.57;4.72;;;;;;;23.67;47.49;102243.41;5008316;28;20042;-58
2022/06/12 08:33:33;;;;;;;16.25;4.25;;;;;;;23.77;47.29;102244.91;5010334;28;20391;-59
2022/06/12 08:35:59;;;;;;;13.98;4.90;;;;;;;23.69;46.62;102250.34;4992088;28;20539;-58
2022/06/12 08:38:24;;;;;;;16.52;4.53;;;;;;;23.75;46.96;102240.69;5010315;28;20401;-58
2022/06/12 08:41:29;;;;;;;13.30;4.95;;;;;;;23.91;48.23;102242.56;5011837;28;20030;-58
2022/06/12 08:44:03;;;;;;;12.68;4.60;;;;;;;23.52;46.03;102243.25;4972857;28;20474;-59
2022/06/12 08:46:41;;;;;;;12.82;4.60;;;;;;;23.42;47.59;102244.22;4987833;28;20037;-59
2022/06/12 08:49:27;;;;;;;14.67;4.23;;;;;;;23.62;47.73;102233.06;5001905;28;20026;-58
2022/06/12 08:52:21;;;;;;;13.68;4.30;;;;;;;23.43;46.89;102237.81;5006190;28;20298;-58
2022/06/12 08:54:55;;;;;;;11.20;4.10;;;;;;;23.44;45.94;102233.22;5006605;28;20026;-59
2022/06/12 08:57:34;;;;;;;13.93;4.20;;;;;;;23.75;46.69;102219.81;5000846;28;20037;-58
2022/06/12 09:00:04;;;;;;;16.85;4.28;;;;;;;23.96;45.71;102218.47;5008791;28;20049;-58
2022/06/12 09:02:34;;;;;;;11.75;3.63;;;;;;;24.15;45.29;102220.78;5005872;28;20066;-57
2022/06/12 09:05:01;;;;;;;14.95;4.13;;;;;;;24.46;44.14;102219.16;5007309;28;20033;-59
2022/06/12 09:07:46;;;;;;;14.55;4.40;;;;;;;24.77;45.11;102213.78;5011179;28;20120;-59
2022/06/12 09:10:35;;;;;;;11.93;3.95;;;;;;;25.07;44.33;102216.66;5007762;28;20101;-59
2022/06/12 09:13:38;;;;;;;10.85;3.58;;;;;;;25.37;43.76;102203.19;5012418;28;20064;-58
2022/06/12 09:16:52;;;;;;;14.00;4.00;;;;;;;25.76;44.73;102210.31;5005369;28;20049;-58
2022/06/12 09:19:25;;;;;;;12.63;3.95;;;;;;;25.76;41.53;102208.44;4976843;28;20519;-59
2022/06/12 09:22:16;;;;;;;17.58;4.10;;;;;;;26.07;40.99;102212.91;5011391;28;20022;-58
2022/06/12 09:25:01;;;;;;;13.50;4.93;;;;;;;26.12;42.20;102209.63;5013232;28;20057;-59
2022/06/12 09:27:45;;;;;;;13.45;4.15;;;;;;;26.65;41.29;102204.91;5014329;28;20145;-59
2022/06/12 09:30:17;;;;;;;10.57;4.00;;;;;;;26.78;39.04;102209.69;5009892;28;20116;-58
2022/06/12 09:33:16;;;;;;;10.88;4.15;;;;;;;27.05;40.06;102204.50;5011282;28;20504;-58
2022/06/12 09:36:01;;;;;;;12.05;4.38;;;;;;;27.18;40.06;102209.22;5009021;28;20033;-59
2022/06/12 09:38:41;;;;;;;11.40;4.43;;;;;;;26.97;38.17;102210.09;5009864;28;20038;-58
2022/06/12 09:41:09;;;;;;;14.27;4.18;;;;;;;27.16;38.12;102203.13;5010157;28;20030;-59
2022/06/12 09:43:55;;;;;;;10.13;3.97;;;;;;;27.35;37.10;102205.25;5012958;28;20083;-59
2022/06/12 09:46:37;;;;;;;12.32;3.60;;;;;;;27.32;37.10;102203.72;5011921;28;20026;-59
2022/06/12 09:49:18;;;;;;;13.05;4.10;;;;;;;27.47;38.54;102198.19;5011125;28;20088;-57
2022/06/12 09:51:52;;;;;;;12.43;3.97;;;;;;;27.22;35.47;102210.53;4994073;28;20026;-57
2022/06/12 09:54:23;;;;;;;11.05;3.40;;;;;;;27.03;36.76;102210.16;5012671;28;20034;-58
2022/06/12 09:57:00;;;;;;;7.93;3.20;;;;;;;27.31;37.30;102198.47;5011612;28;20036;-59
2022/06/12 10:00:03;;;;;;;7.68;3.28;;;;;;;27.34;37.33;102199.97;5012455;28;20443;-58
2022/06/12 10:02:41;;;;;;;10.57;3.67;;;;;;;27.44;36.45;102209.50;4977411;28;20506;-59
2022/06/12 10:05:06;;;;;;;8.95;3.47;;;;;;;27.38;36.56;102204.84;5012820;28;20026;-59
2022/06/12 10:07:39;;;;;;;12.73;3.53;;;;;;;27.41;35.77;102199.00;5006834;28;20132;-59
2022/06/12 10:10:16;;;;;;;10.32;3.38;;;;;;;27.58;36.14;102191.38;4988746;28;20065;-59
2022/06/12 10:12:47;;;;;;;10.68;3.65;;;;;;;27.59;36.29;102197.66;5007903;28;20044;-58
2022/06/12 10:15:29;;;;;;;12.68;3.72;;;;;;;27.34;38.03;102186.34;4983757;28;20030;-59
2022/06/12 10:18:38;;;;;;;13.15;4.10;;;;;;;27.71;38.26;102187.88;5012409;28;20397;-58
2022/06/12 10:21:08;;;;;;;13.38;3.20;;;;;;;27.54;36.47;102186.50;5003170;28;20111;-59
2022/06/12 10:23:33;;;;;;;8.40;3.00;;;;;;;27.30;35.18;102186.72;4995920;28;20026;-58
2022/06/12 10:26:01;;;;;;;10.55;3.08;;;;;;;26.94;35.71;102184.88;5012451;28;20045;-59
2022/06/12 10:28:29;;;;;;;13.77;3.60;;;;;;;26.73;37.54;102185.72;4992552;28;20109;-59
2022/06/12 10:31:10;;;;;;;10.00;3.60;;;;;;;27.09;37.81;102189.44;4994535;28;20033;-59
2022/06/12 10:33:41;;;;;;;11.73;3.97;;;;;;;26.82;37.26;102183.72;4996263;28;20128;-59
2022/06/12 10:36:27;;;;;;;11.88;3.35;;;;;;;26.67;37.21;102178.31;5007947;28;20401;-58
2022/06/12 10:39:05;;;;;;;13.50;3.45;;;;;;;26.60;37.11;102180.09;5010036;28;20042;-59
2022/06/12 10:41:32;;;;;;;10.35;3.17;;;;;;;26.49;37.09;102180.56;5003124;28;20022;-58
2022/06/12 10:43:57;;;;;;;8.25;2.88;;;;;;;26.44;38.78;102180.31;5009001;28;20845;-58
2022/06/12 10:46:28;;;;;;;12.68;3.33;;;;;;;26.39;36.33;102184.44;5012886;28;20112;-58
2022/06/12 10:49:03;;;;;;;10.32;3.08;;;;;;;26.25;36.35;102181.72;5010683;28;20068;-59
2022/06/12 10:51:36;;;;;;;11.55;3.42;;;;;;;26.32;36.50;102188.97;4994232;28;20030;-58
2022/06/12 10:54:23;;;;;;;8.60;3.03;;;;;;;26.31;37.73;102179.13;5009022;28;20022;-59
2022/06/12 10:57:04;;;;;;;11.20;3.28;;;;;;;26.11;36.61;102176.09;4993055;28;20042;-58
2022/06/12 10:59:53;;;;;;;10.13;2.80;;;;;;;26.53;38.61;102173.69;5010096;28;20385;-59
2022/06/12 11:02:37;;;;;;;12.00;3.20;;;;;;;27.00;38.08;102166.91;5010938;28;20025;-58
2022/06/12 11:05:35;;;;;;;12.98;3.05;;;;;;;27.53;37.95;102157.50;5001127;28;20509;-59
2022/06/12 11:08:20;;;;;;;10.23;3.15;;;;;;;27.87;36.22;102164.91;5008373;28;20018;-59
2022/06/12 11:11:24;;;;;;;10.45;3.03;;;;;;;28.05;35.52;102164.41;5009626;28;20439;-59
2022/06/12 11:15:07;;;;;;;9.27;2.65;;;;;;;28.37;36.49;102151.09;4996885;28;20042;-59
2022/06/12 11:17:59;;;;;;;11.32;3.25;;;;;;;28.27;35.05;102153.38;4910433;29;20036;-58
2022/06/12 11:20:36;;;;;;;8.63;2.60;;;;;;;28.45;35.41;102164.56;4925163;29;20535;-58
2022/06/12 11:23:20;;;;;;;9.82;2.88;;;;;;;28.70;35.10;102164.06;4990855;28;20033;-58
2022/06/12 11:25:57;;;;;;;12.65;2.85;;;;;;;28.72;35.52;102160.03;4999939;28;20109;-60
2022/06/12 11:28:47;;;;;;;9.07;2.60;;;;;;;28.75;34.92;102162.38;5000088;28;20444;-58
2022/06/12 11:31:33;;;;;;;7.97;2.63;;;;;;;28.47;34.56;102164.38;4997799;28;20088;-59
2022/06/12 11:34:35;;;;;;;8.32;2.60;;;;;;;28.33;36.09;102164.31;4993799;28;20080;-58
2022/06/12 11:37:23;;;;;;;9.48;2.70;;;;;;;28.10;35.53;102153.72;5008541;28;20026;-58
2022/06/12 11:40:08;;;;;;;7.35;2.70;;;;;;;28.12;35.25;102148.88;5012119;28;20034;-58
2022/06/12 11:42:53;;;;;;;9.93;2.65;;;;;;;27.93;33.98;102152.34;5011028;28;20033;-57
2022/06/12 11:45:45;;;;;;;7.75;2.67;;;;;;;27.95;33.85;102136.63;5009818;28;20030;-58
2022/06/12 11:48:16;;;;;;;6.60;2.60;;;;;;;27.95;32.58;102139.34;5000115;28;20446;-58
2022/06/12 11:50:58;;;;;;;8.48;2.78;;;;;;;28.04;33.43;102138.94;4985328;28;20026;-58
2022/06/12 11:53:47;;;;;;;8.30;2.50;;;;;;;28.04;33.66;102127.19;4996900;28;20386;-58
2022/06/12 11:56:36;;;;;;;8.32;2.50;;;;;;;27.83;35.21;102128.97;5008693;28;20041;-58
2022/06/12 11:59:28;;;;;;;9.60;3.05;;;;;;;27.79;34.45;102130.38;5005612;28;20425;-58
2022/06/12 12:02:13;;;;;;;7.68;3.20;;;;;;;27.46;34.54;102135.63;4999142;28;20385;-58